createdAt,value
2023-01-17T00:00:32.756Z,99.51
2023-01-17T00:02:59.370Z,99.83
2023-01-17T00:05:44.182Z,99.63
2023-01-17T00:08:31.071Z,99.45
2023-01-17T00:10:58.357Z,99.21
2023-01-17T00:13:24.877Z,99.69
2023-01-17T00:15:51.444Z,99.43
2023-01-17T00:18:17.894Z,99.46
2023-01-17T00:21:02.895Z,99.31
2023-01-17T00:23:41.094Z,98.72
2023-01-17T00:26:16.841Z,98.49
2023-01-17T00:28:44.390Z,99.20
2023-01-17T00:31:13.347Z,98.14
2023-01-17T00:33:39.842Z,98.09
2023-01-17T00:36:07.154Z,98.42
2023-01-17T00:38:35.832Z,97.89
2023-01-17T00:41:05.325Z,97.91
2023-01-17T00:43:50.653Z,98.02
2023-01-17T00:46:36.014Z,97.87
2023-01-17T00:49:21.150Z,98.74
2023-01-17T00:52:05.904Z,98.56
2023-01-17T00:54:51.022Z,98.46
2023-01-17T00:57:36.235Z,98.10
2023-01-17T01:00:22.213Z,98.86
2023-01-17T01:03:07.051Z,98.78
2023-01-17T01:05:51.760Z,99.76
2023-01-17T01:08:48.301Z,98.94
2023-01-17T01:11:39.705Z,99.24
2023-01-17T01:14:26.585Z,99.43
2023-01-17T01:17:11.523Z,99.84
2023-01-17T01:19:56.202Z,99.97
2023-01-17T01:22:41.054Z,100.00
2023-01-17T01:25:26.270Z,100.00
2023-01-17T01:28:10.991Z,100.00
2023-01-17T01:30:55.742Z,100.00
2023-01-17T01:33:22.108Z,100.00
2023-01-17T01:35:53.764Z,100.00
2023-01-17T01:38:23.637Z,100.00
2023-01-17T01:40:52.740Z,100.00
2023-01-17T01:43:38.524Z,100.00
2023-01-17T01:46:05.832Z,100.00
2023-01-17T01:48:47.594Z,100.00
2023-01-17T01:51:19.503Z,100.00
2023-01-17T01:53:49.037Z,100.00
2023-01-17T01:56:16.525Z,100.00
2023-01-17T01:58:47.455Z,100.00
2023-01-17T02:01:15.323Z,100.00
2023-01-17T02:03:42.572Z,100.00
2023-01-17T02:06:20.746Z,100.00
2023-01-17T02:08:48.154Z,100.00
2023-01-17T02:11:15.111Z,100.00
2023-01-17T02:13:42.841Z,100.00
2023-01-17T02:16:25.981Z,100.00
2023-01-17T02:19:25.729Z,100.00
2023-01-17T02:22:12.732Z,100.00
2023-01-17T02:25:06.844Z,100.00
2023-01-17T02:27:51.938Z,100.00
2023-01-17T02:30:49.571Z,100.00
2023-01-17T02:33:31.714Z,100.00
2023-01-17T02:36:10.131Z,100.00
2023-01-17T02:38:52.021Z,100.00
2023-01-17T02:41:20.899Z,100.00
2023-01-17T02:43:50.111Z,100.00
2023-01-17T02:46:16.593Z,100.00
2023-01-17T02:48:43.942Z,100.00
2023-01-17T02:51:44.987Z,100.00
2023-01-17T02:54:11.276Z,100.00
2023-01-17T02:57:02.674Z,100.00
2023-01-17T02:59:53.703Z,100.00
2023-01-17T03:02:46.192Z,100.00
2023-01-17T03:05:15.161Z,100.00
2023-01-17T03:07:44.224Z,100.00
2023-01-17T03:10:13.231Z,100.00
2023-01-17T03:12:40.571Z,100.00
2023-01-17T03:15:11.834Z,100.00
2023-01-17T03:17:40.198Z,100.00
2023-01-17T03:20:07.176Z,100.00
2023-01-17T03:22:33.560Z,100.00
2023-01-17T03:25:00.013Z,100.00
2023-01-17T03:27:26.408Z,100.00
2023-01-17T03:29:52.866Z,100.00
2023-01-17T03:32:19.279Z,100.00
2023-01-17T03:34:45.674Z,100.00
2023-01-17T03:37:12.138Z,100.00
2023-01-17T03:39:38.521Z,100.00
2023-01-17T03:42:04.962Z,100.00
2023-01-17T03:44:31.347Z,100.00
2023-01-17T03:46:57.702Z,100.00
2023-01-17T03:49:24.203Z,100.00
2023-01-17T03:51:50.641Z,100.00
2023-01-17T03:54:17.009Z,100.00
2023-01-17T03:56:43.594Z,100.00
2023-01-17T03:59:12.984Z,100.00
2023-01-17T04:01:39.680Z,100.00
2023-01-17T04:04:06.164Z,100.00
2023-01-17T04:06:32.689Z,100.00
2023-01-17T04:08:59.047Z,100.00
2023-01-17T04:11:25.456Z,100.00
2023-01-17T04:13:51.888Z,100.00
2023-01-17T04:16:19.102Z,100.00
2023-01-17T04:18:45.658Z,100.00
2023-01-17T04:21:12.061Z,100.00
2023-01-17T04:23:38.575Z,100.00
2023-01-17T04:26:05.367Z,100.00
2023-01-17T04:28:31.884Z,100.00
2023-01-17T04:31:00.598Z,100.00
2023-01-17T04:33:27.103Z,100.00
2023-01-17T04:35:54.324Z,100.00
2023-01-17T04:38:21.298Z,100.00
2023-01-17T04:40:48.611Z,100.00
2023-01-17T04:43:15.927Z,100.00
2023-01-17T04:45:42.307Z,100.00
2023-01-17T04:48:12.510Z,100.00
2023-01-17T04:50:39.904Z,100.00
2023-01-17T04:53:06.314Z,100.00
2023-01-17T04:55:32.838Z,100.00
2023-01-17T04:57:59.258Z,100.00
2023-01-17T05:00:25.711Z,100.00
2023-01-17T05:02:52.191Z,100.00
2023-01-17T05:05:18.726Z,100.00
2023-01-17T05:07:53.280Z,100.00
2023-01-17T05:10:19.637Z,100.00
2023-01-17T05:12:56.777Z,100.00
2023-01-17T05:15:24.228Z,100.00
2023-01-17T05:17:52.265Z,100.00
2023-01-17T05:20:20.084Z,100.00
2023-01-17T05:22:55.366Z,100.00
2023-01-17T05:25:26.729Z,100.00
2023-01-17T05:27:53.455Z,100.00
2023-01-17T05:30:20.932Z,100.00
2023-01-17T05:32:51.919Z,100.00
2023-01-17T05:35:24.223Z,100.00
2023-01-17T05:37:51.315Z,100.00
2023-01-17T05:40:31.930Z,100.00
2023-01-17T05:42:59.551Z,100.00
2023-01-17T05:45:28.284Z,100.00
2023-01-17T05:47:56.609Z,100.00
2023-01-17T05:50:29.805Z,100.00
2023-01-17T05:52:58.568Z,100.00
2023-01-17T05:55:27.140Z,100.00
2023-01-17T05:57:54.042Z,100.00
2023-01-17T06:00:21.473Z,100.00
2023-01-17T06:02:48.352Z,100.00
2023-01-17T06:05:15.700Z,100.00
2023-01-17T06:07:46.313Z,100.00
2023-01-17T06:10:17.228Z,100.00
2023-01-17T06:12:45.236Z,100.00
2023-01-17T06:15:13.224Z,100.00
2023-01-17T06:17:39.664Z,100.00
2023-01-17T06:20:08.453Z,100.00
2023-01-17T06:22:35.259Z,100.00
2023-01-17T06:25:01.856Z,100.00
2023-01-17T06:27:28.501Z,100.00
2023-01-17T06:29:55.099Z,100.00
2023-01-17T06:32:21.625Z,100.00
2023-01-17T06:34:48.065Z,100.00
2023-01-17T06:37:14.435Z,100.00
2023-01-17T06:39:40.853Z,100.00
2023-01-17T06:42:07.219Z,100.00
2023-01-17T06:44:33.710Z,100.00
2023-01-17T06:47:00.147Z,100.00
2023-01-17T06:49:26.572Z,100.00
2023-01-17T06:51:52.967Z,100.00
2023-01-17T06:54:19.501Z,100.00
2023-01-17T06:56:45.958Z,100.00
2023-01-17T06:59:12.362Z,100.00
2023-01-17T07:01:38.874Z,100.00
2023-01-17T07:04:05.443Z,100.00
2023-01-17T07:06:31.901Z,100.00
2023-01-17T07:08:59.072Z,100.00
2023-01-17T07:11:27.267Z,100.00
2023-01-17T07:13:54.037Z,100.00
2023-01-17T07:16:20.646Z,100.00
2023-01-17T07:18:47.117Z,100.00
2023-01-17T07:21:14.989Z,100.00
2023-01-17T07:23:41.672Z,100.00
2023-01-17T07:26:08.248Z,100.00
2023-01-17T07:28:34.772Z,100.00
2023-01-17T07:31:08.429Z,100.00
2023-01-17T07:33:35.118Z,100.00
2023-01-17T07:36:07.401Z,100.00
2023-01-17T07:38:34.271Z,100.00
2023-01-17T07:41:00.774Z,100.00
2023-01-17T07:43:27.710Z,100.00
2023-01-17T07:45:54.340Z,100.00
2023-01-17T07:48:24.021Z,100.00
2023-01-17T07:50:54.784Z,100.00
2023-01-17T07:53:23.554Z,100.00
2023-01-17T07:55:49.992Z,100.00
2023-01-17T07:58:16.529Z,100.00
2023-01-17T08:00:44.720Z,100.00
2023-01-17T08:03:17.411Z,100.00
2023-01-17T08:05:53.566Z,100.00
2023-01-17T08:08:20.241Z,100.00
2023-01-17T08:10:47.130Z,100.00
2023-01-17T08:13:13.553Z,100.00
2023-01-17T08:15:40.033Z,100.00
2023-01-17T08:18:06.557Z,100.00
2023-01-17T08:20:33.078Z,100.00
2023-01-17T08:22:59.640Z,100.00
2023-01-17T08:25:26.583Z,100.00
2023-01-17T08:27:57.488Z,100.00
2023-01-17T08:30:24.668Z,100.00
2023-01-17T08:32:51.258Z,100.00
2023-01-17T08:35:19.815Z,100.00
2023-01-17T08:37:46.993Z,100.00
2023-01-17T08:40:17.177Z,100.00
2023-01-17T08:42:44.244Z,100.00
2023-01-17T08:45:11.948Z,100.00
2023-01-17T08:47:38.432Z,100.00
2023-01-17T08:50:06.838Z,100.00
2023-01-17T08:52:33.764Z,100.00
2023-01-17T08:55:00.225Z,100.00
2023-01-17T08:57:26.762Z,100.00
2023-01-17T08:59:53.200Z,100.00
2023-01-17T09:02:19.954Z,100.00
2023-01-17T09:04:50.196Z,100.00
2023-01-17T09:07:19.274Z,100.00
2023-01-17T09:09:46.347Z,99.91
2023-01-17T09:12:12.839Z,100.00
2023-01-17T09:14:39.293Z,99.77
2023-01-17T09:17:07.059Z,99.39
2023-01-17T09:19:35.412Z,99.69
2023-01-17T09:22:04.056Z,99.11
2023-01-17T09:24:31.076Z,98.72
2023-01-17T09:26:57.420Z,99.03
2023-01-17T09:29:23.818Z,99.55
2023-01-17T09:31:50.231Z,99.08
2023-01-17T09:34:18.559Z,97.95
2023-01-17T09:36:45.042Z,98.28
2023-01-17T09:39:14.413Z,97.61
2023-01-17T09:42:18.625Z,98.06
2023-01-17T09:44:53.233Z,97.45
2023-01-17T09:47:37.347Z,97.85
2023-01-17T09:50:37.445Z,97.40
2023-01-17T09:53:13.987Z,96.85
2023-01-17T09:55:48.744Z,95.44
2023-01-17T09:58:28.130Z,95.59
2023-01-17T10:01:21.526Z,94.00
2023-01-17T10:04:40.302Z,94.04
2023-01-17T10:07:25.026Z,94.18
2023-01-17T10:10:20.789Z,92.79
2023-01-17T10:12:57.491Z,92.99
2023-01-17T10:16:06.520Z,91.87
2023-01-17T10:18:46.694Z,91.44
2023-01-17T10:21:37.417Z,90.66
2023-01-17T10:24:18.354Z,90.80
2023-01-17T10:26:48.564Z,88.42
2023-01-17T10:29:20.188Z,89.21
2023-01-17T10:31:58.611Z,89.48
2023-01-17T10:34:40.268Z,90.26
2023-01-17T10:37:45.154Z,89.80
2023-01-17T10:40:17.697Z,90.23
2023-01-17T10:43:09.995Z,89.41
2023-01-17T10:45:52.845Z,89.84
2023-01-17T10:48:43.310Z,89.27
2023-01-17T10:51:21.856Z,88.95
2023-01-17T10:54:19.309Z,90.21
2023-01-17T10:56:45.962Z,90.38
2023-01-17T10:59:24.326Z,90.23
2023-01-17T11:01:51.409Z,90.66
2023-01-17T11:04:21.470Z,89.93
2023-01-17T11:07:10.470Z,89.88
2023-01-17T11:09:39.916Z,88.84
2023-01-17T11:12:18.626Z,90.21
2023-01-17T11:15:00.982Z,90.66
2023-01-17T11:17:28.606Z,89.53
2023-01-17T11:20:29.407Z,89.66
2023-01-17T11:23:17.629Z,91.10
2023-01-17T11:25:55.456Z,90.84
2023-01-17T11:28:26.086Z,91.58
2023-01-17T11:31:16.593Z,91.15
2023-01-17T11:33:53.794Z,90.94
2023-01-17T11:36:27.445Z,91.08
2023-01-17T11:39:02.881Z,89.85
2023-01-17T11:41:37.864Z,89.61
2023-01-17T11:44:20.262Z,90.28
2023-01-17T11:46:46.797Z,90.03
2023-01-17T11:49:25.006Z,90.42
2023-01-17T11:51:56.156Z,90.53
2023-01-17T11:54:33.543Z,89.71
2023-01-17T11:57:01.563Z,89.32
2023-01-17T11:59:34.616Z,89.56
2023-01-17T12:02:32.017Z,89.21
2023-01-17T12:05:09.438Z,89.68
2023-01-17T12:07:45.262Z,89.90
2023-01-17T12:10:38.837Z,88.55
2023-01-17T12:13:41.355Z,88.64
2023-01-17T12:16:39.964Z,87.65
2023-01-17T12:19:28.570Z,87.70
2023-01-17T12:22:19.008Z,87.01
2023-01-17T12:24:58.464Z,87.60
2023-01-17T12:27:42.626Z,87.96
2023-01-17T12:30:39.119Z,87.19
2023-01-17T12:33:19.170Z,87.25
2023-01-17T12:35:53.481Z,86.14
2023-01-17T12:38:39.719Z,86.50
2023-01-17T12:41:13.306Z,86.02
2023-01-17T12:43:41.461Z,86.49
2023-01-17T12:46:13.236Z,86.03
2023-01-17T12:48:39.679Z,86.79
2023-01-17T12:51:20.293Z,86.76
2023-01-17T12:54:06.915Z,85.63
2023-01-17T12:56:47.520Z,84.36
2023-01-17T12:59:31.111Z,84.32
2023-01-17T13:02:01.374Z,84.02
2023-01-17T13:04:41.949Z,84.32
2023-01-17T13:07:28.866Z,82.54
2023-01-17T13:10:03.173Z,81.98
2023-01-17T13:12:32.527Z,82.33
2023-01-17T13:15:02.072Z,81.86
2023-01-17T13:17:37.433Z,82.54
2023-01-17T13:20:34.844Z,82.91
2023-01-17T13:23:12.592Z,82.19
2023-01-17T13:25:48.148Z,82.24
2023-01-17T13:28:40.098Z,81.04
2023-01-17T13:31:21.695Z,78.88
2023-01-17T13:34:04.726Z,79.60
2023-01-17T13:36:54.468Z,78.78
2023-01-17T13:39:39.375Z,79.56
2023-01-17T13:42:21.608Z,79.17
2023-01-17T13:44:48.489Z,77.43
2023-01-17T13:47:17.933Z,77.19
2023-01-17T13:49:49.418Z,76.88
2023-01-17T13:52:18.996Z,75.57
2023-01-17T13:54:45.785Z,76.76
2023-01-17T13:57:36.200Z,76.88
2023-01-17T14:00:21.851Z,75.63
2023-01-17T14:02:49.623Z,75.09
2023-01-17T14:05:24.026Z,77.04
2023-01-17T14:08:03.933Z,77.41
2023-01-17T14:10:54.565Z,77.67
2023-01-17T14:13:32.570Z,78.46
2023-01-17T14:16:00.135Z,77.83
2023-01-17T14:18:41.418Z,78.00
2023-01-17T14:21:31.530Z,77.21
2023-01-17T14:24:04.942Z,75.53
2023-01-17T14:26:31.431Z,76.24
2023-01-17T14:29:18.744Z,77.53
2023-01-17T14:31:45.443Z,77.22
2023-01-17T14:34:13.738Z,77.31
2023-01-17T14:36:40.485Z,77.01
2023-01-17T14:39:21.121Z,78.04
2023-01-17T14:41:47.915Z,78.89
2023-01-17T14:44:14.758Z,78.56
2023-01-17T14:46:48.623Z,77.87
2023-01-17T14:49:25.366Z,77.43
2023-01-17T14:52:02.691Z,77.64
2023-01-17T14:54:29.138Z,79.22
2023-01-17T14:57:22.632Z,78.77
2023-01-17T14:59:49.107Z,79.86
2023-01-17T15:02:18.522Z,81.45
2023-01-17T15:04:53.416Z,80.87
2023-01-17T15:07:20.343Z,80.71
2023-01-17T15:09:47.111Z,81.97
2023-01-17T15:12:14.501Z,83.05
2023-01-17T15:14:44.729Z,82.37
2023-01-17T15:17:18.781Z,82.86
2023-01-17T15:19:49.922Z,83.35
2023-01-17T15:22:18.408Z,83.83
2023-01-17T15:24:46.442Z,84.69
2023-01-17T15:27:15.076Z,84.29
2023-01-17T15:29:42.222Z,84.58
2023-01-17T15:32:18.894Z,84.71
2023-01-17T15:34:48.026Z,85.09
2023-01-17T15:37:23.030Z,86.16
2023-01-17T15:39:49.595Z,86.47
2023-01-17T15:42:26.041Z,86.01
2023-01-17T15:45:00.847Z,86.07
2023-01-17T15:47:41.390Z,86.86
2023-01-17T15:50:20.284Z,86.93
2023-01-17T15:53:01.584Z,86.31
2023-01-17T15:55:35.765Z,86.75
2023-01-17T15:58:03.091Z,87.94
2023-01-17T16:00:38.336Z,88.48
2023-01-17T16:03:36.291Z,88.29
2023-01-17T16:06:34.400Z,89.95
2023-01-17T16:08:59.022Z,89.33
2023-01-17T16:11:25.451Z,89.31
2023-01-17T16:13:52.605Z,89.99
2023-01-17T16:16:23.773Z,90.49
2023-01-17T16:18:58.816Z,90.27
2023-01-17T16:21:28.078Z,89.78
2023-01-17T16:23:54.619Z,89.81
2023-01-17T16:26:21.432Z,90.65
2023-01-17T16:28:48.733Z,91.62
2023-01-17T16:31:15.646Z,91.25
2023-01-17T16:33:42.440Z,91.12
2023-01-17T16:36:14.795Z,91.82
2023-01-17T16:38:42.290Z,92.08
2023-01-17T16:41:08.956Z,91.70
2023-01-17T16:43:35.420Z,93.28
2023-01-17T16:46:01.861Z,93.08
2023-01-17T16:48:28.282Z,93.05
2023-01-17T16:50:54.757Z,93.24
2023-01-17T16:53:27.539Z,92.72
2023-01-17T16:55:59.304Z,93.09
2023-01-17T16:58:25.984Z,92.94
2023-01-17T17:00:52.483Z,93.88
2023-01-17T17:03:20.832Z,93.42
2023-01-17T17:05:58.747Z,94.30
2023-01-17T17:08:25.802Z,94.44
2023-01-17T17:10:52.277Z,94.40
2023-01-17T17:13:18.646Z,93.90
2023-01-17T17:15:45.363Z,93.65
2023-01-17T17:18:17.059Z,94.50
2023-01-17T17:20:44.554Z,94.42
2023-01-17T17:23:11.373Z,94.68
2023-01-17T17:25:37.931Z,94.39
2023-01-17T17:28:05.672Z,95.21
2023-01-17T17:30:33.312Z,95.64
2023-01-17T17:32:59.874Z,95.24
2023-01-17T17:35:26.812Z,94.50
2023-01-17T17:37:53.622Z,95.42
2023-01-17T17:40:20.188Z,95.48
2023-01-17T17:42:46.587Z,95.41
2023-01-17T17:45:12.970Z,95.23
2023-01-17T17:47:39.367Z,95.75
2023-01-17T17:50:06.332Z,95.33
2023-01-17T17:52:32.839Z,95.18
2023-01-17T17:54:59.349Z,95.34
2023-01-17T17:57:25.806Z,95.44
2023-01-17T17:59:55.946Z,95.14
2023-01-17T18:02:22.569Z,95.54
2023-01-17T18:04:49.011Z,95.41
2023-01-17T18:07:15.551Z,95.04
2023-01-17T18:09:41.923Z,95.75
2023-01-17T18:12:08.447Z,94.80
2023-01-17T18:14:34.891Z,95.39
2023-01-17T18:17:01.299Z,95.24
2023-01-17T18:19:27.761Z,95.48
2023-01-17T18:21:54.551Z,95.77
2023-01-17T18:24:23.704Z,96.06
2023-01-17T18:26:57.469Z,95.42
2023-01-17T18:29:25.854Z,95.98
2023-01-17T18:31:53.419Z,96.03
2023-01-17T18:34:24.035Z,95.96
2023-01-17T18:36:51.766Z,96.30
2023-01-17T18:39:24.443Z,95.47
2023-01-17T18:41:51.710Z,95.97
2023-01-17T18:44:22.384Z,95.57
2023-01-17T18:46:51.135Z,96.34
2023-01-17T18:49:19.103Z,96.15
2023-01-17T18:51:50.214Z,96.18
2023-01-17T18:54:17.960Z,95.60
2023-01-17T18:56:44.646Z,95.07
2023-01-17T18:59:18.048Z,95.25
2023-01-17T19:01:44.728Z,95.28
2023-01-17T19:04:13.497Z,95.89
2023-01-17T19:06:42.817Z,95.08
2023-01-17T19:09:11.849Z,95.63
2023-01-17T19:11:38.662Z,95.53
2023-01-17T19:14:06.345Z,94.73
2023-01-17T19:16:36.555Z,95.53
2023-01-17T19:19:05.590Z,95.28
2023-01-17T19:21:32.482Z,94.93
2023-01-17T19:23:59.659Z,94.86
2023-01-17T19:26:27.497Z,96.03
2023-01-17T19:29:05.302Z,96.11
2023-01-17T19:31:35.667Z,95.74
2023-01-17T19:34:02.374Z,95.52
2023-01-17T19:36:33.654Z,95.80
2023-01-17T19:39:05.567Z,95.39
2023-01-17T19:41:35.048Z,95.58
2023-01-17T19:44:04.237Z,95.14
2023-01-17T19:46:32.289Z,95.75
2023-01-17T19:48:59.535Z,96.16
2023-01-17T19:51:26.903Z,95.13
2023-01-17T19:53:56.503Z,96.53
2023-01-17T19:56:24.874Z,95.87
2023-01-17T19:58:52.116Z,96.44
2023-01-17T20:01:21.788Z,95.72
2023-01-17T20:03:51.161Z,95.52
2023-01-17T20:06:21.116Z,95.92
2023-01-17T20:08:47.681Z,95.26
2023-01-17T20:11:18.413Z,95.25
2023-01-17T20:13:49.088Z,95.59
2023-01-17T20:16:17.710Z,94.33
2023-01-17T20:18:44.794Z,94.41
2023-01-17T20:21:17.262Z,95.11
2023-01-17T20:23:46.741Z,94.13
2023-01-17T20:26:15.223Z,93.90
2023-01-17T20:28:43.687Z,94.00
2023-01-17T20:31:12.951Z,93.74
2023-01-17T20:33:40.701Z,94.38
2023-01-17T20:36:11.119Z,93.55
2023-01-17T20:38:45.131Z,93.57
2023-01-17T20:41:24.528Z,94.07
2023-01-17T20:43:53.916Z,93.31
2023-01-17T20:46:22.841Z,93.49
2023-01-17T20:48:51.331Z,93.73
2023-01-17T20:51:19.765Z,93.38
2023-01-17T20:53:50.272Z,93.34
2023-01-17T20:56:17.219Z,92.91
2023-01-17T20:58:43.917Z,92.90
2023-01-17T21:01:12.580Z,93.13
2023-01-17T21:03:39.900Z,93.05
2023-01-17T21:06:09.474Z,92.38
2023-01-17T21:08:38.535Z,93.11
2023-01-17T21:11:06.005Z,92.56
2023-01-17T21:13:32.887Z,93.49
2023-01-17T21:15:59.908Z,92.66
2023-01-17T21:18:28.178Z,92.66
2023-01-17T21:20:54.684Z,93.00
2023-01-17T21:23:23.414Z,93.21
2023-01-17T21:25:55.527Z,93.33
2023-01-17T21:28:26.273Z,92.64
2023-01-17T21:30:53.790Z,92.69
2023-01-17T21:33:22.352Z,92.99
2023-01-17T21:35:48.874Z,93.40
2023-01-17T21:38:15.617Z,93.08
2023-01-17T21:40:43.666Z,93.15
2023-01-17T21:43:11.295Z,92.81
2023-01-17T21:45:38.963Z,93.03
2023-01-17T21:48:12.050Z,93.67
2023-01-17T21:50:38.682Z,92.83
2023-01-17T21:53:05.110Z,93.33
2023-01-17T21:55:49.998Z,93.26
2023-01-17T21:58:36.393Z,92.69
2023-01-17T22:01:19.032Z,92.98
2023-01-17T22:03:49.269Z,93.83
2023-01-17T22:06:16.178Z,93.32
2023-01-17T22:08:43.273Z,93.42
2023-01-17T22:11:13.335Z,94.22
2023-01-17T22:13:41.919Z,93.51
2023-01-17T22:16:11.674Z,93.44
2023-01-17T22:18:39.085Z,93.68
2023-01-17T22:21:28.105Z,94.11
2023-01-17T22:23:59.374Z,94.12
2023-01-17T22:26:30.764Z,94.40
2023-01-17T22:29:00.567Z,94.64
2023-01-17T22:31:28.229Z,94.90
2023-01-17T22:34:01.050Z,94.41
2023-01-17T22:36:28.437Z,95.15
2023-01-17T22:38:54.867Z,95.46
2023-01-17T22:41:24.052Z,95.08
2023-01-17T22:43:56.029Z,95.21
2023-01-17T22:46:27.031Z,95.47
2023-01-17T22:48:55.748Z,95.28
2023-01-17T22:51:23.693Z,95.19
2023-01-17T22:53:52.814Z,95.40
2023-01-17T22:56:23.057Z,95.67
2023-01-17T22:58:50.377Z,94.96
2023-01-17T23:01:25.979Z,95.97
2023-01-17T23:03:55.464Z,95.90
2023-01-17T23:06:30.488Z,95.72
2023-01-17T23:08:59.749Z,95.57
2023-01-17T23:11:39.330Z,96.16
2023-01-17T23:14:14.834Z,95.71
2023-01-17T23:17:06.046Z,94.94
2023-01-17T23:19:47.863Z,96.02
2023-01-17T23:22:17.498Z,95.73
2023-01-17T23:24:52.917Z,94.84
2023-01-17T23:28:05.149Z,95.56
2023-01-17T23:30:40.490Z,95.73
2023-01-17T23:33:09.044Z,95.87
2023-01-17T23:35:41.719Z,95.69
2023-01-17T23:38:33.897Z,96.08
2023-01-17T23:41:34.180Z,96.15
2023-01-17T23:44:00.568Z,95.42
2023-01-17T23:46:27.357Z,96.02
2023-01-17T23:48:55.001Z,96.11
2023-01-17T23:51:21.680Z,95.91
2023-01-17T23:53:48.174Z,96.07
2023-01-17T23:56:20.380Z,95.54
2023-01-17T23:58:46.980Z,96.28
